createdAt,value
2023-04-18T00:01:50.496Z,7.70
2023-04-18T00:04:18.530Z,7.70
2023-04-18T00:06:47.234Z,7.70
2023-04-18T00:09:14.062Z,7.60
2023-04-18T00:11:40.848Z,7.60
2023-04-18T00:14:08.573Z,7.50
2023-04-18T00:16:36.264Z,7.90
2023-04-18T00:19:04.722Z,8.00
2023-04-18T00:21:32.103Z,7.40
2023-04-18T00:23:59.091Z,7.40
2023-04-18T00:26:27.171Z,7.30
2023-04-18T00:28:53.972Z,7.30
2023-04-18T00:31:20.938Z,7.20
2023-04-18T00:36:15.077Z,7.10
2023-04-18T00:38:41.962Z,7.10
2023-04-18T00:41:08.842Z,7.10
2023-04-18T00:43:35.903Z,7.10
2023-04-18T00:46:02.834Z,7.00
2023-04-18T00:48:30.734Z,7.00
2023-04-18T00:51:00.459Z,7.00
2023-04-18T00:53:27.992Z,7.00
2023-04-18T00:55:55.589Z,7.00
2023-04-18T00:58:22.462Z,6.90
2023-04-18T01:00:49.713Z,6.90
2023-04-18T01:03:18.230Z,6.90
2023-04-18T01:05:46.543Z,6.80
2023-04-18T01:08:13.709Z,6.70
2023-04-18T01:10:40.654Z,6.80
2023-04-18T01:13:15.490Z,6.80
2023-04-18T01:15:50.326Z,6.80
2023-04-18T01:18:17.919Z,6.80
2023-04-18T01:20:48.341Z,6.70
2023-04-18T01:23:16.595Z,6.70
2023-04-18T01:25:44.738Z,6.70
2023-04-18T01:28:14.730Z,6.70
2023-04-18T01:30:41.819Z,6.70
2023-04-18T01:33:08.608Z,6.70
2023-04-18T01:35:35.387Z,6.70
2023-04-18T01:38:02.323Z,6.80
2023-04-18T01:40:30.080Z,6.80
2023-04-18T01:42:56.861Z,6.80
2023-04-18T01:45:23.784Z,6.90
2023-04-18T01:47:50.641Z,6.90
2023-04-18T01:50:17.370Z,6.90
2023-04-18T01:52:44.173Z,6.90
2023-04-18T01:55:11.362Z,6.90
2023-04-18T01:57:38.258Z,6.90
2023-04-18T02:00:06.368Z,6.80
2023-04-18T02:02:33.387Z,6.80
2023-04-18T02:05:00.224Z,6.80
2023-04-18T02:07:27.098Z,6.70
2023-04-18T02:09:53.984Z,6.70
2023-04-18T02:12:21.037Z,6.70
2023-04-18T02:14:51.990Z,6.60
2023-04-18T02:17:19.992Z,6.60
2023-04-18T02:19:46.917Z,6.50
2023-04-18T02:22:13.758Z,6.50
2023-04-18T02:24:40.616Z,6.50
2023-04-18T02:27:07.599Z,6.50
2023-04-18T02:29:34.436Z,6.40
2023-04-18T02:32:01.515Z,6.40
2023-04-18T02:34:28.295Z,6.40
2023-04-18T02:36:57.440Z,6.30
2023-04-18T02:39:24.138Z,6.20
2023-04-18T02:41:50.901Z,6.20
2023-04-18T02:44:18.805Z,6.20
2023-04-18T02:46:45.594Z,6.20
2023-04-18T02:49:12.397Z,6.10
2023-04-18T02:51:39.105Z,6.10
2023-04-18T02:54:05.859Z,6.00
2023-04-18T02:56:33.526Z,6.00
2023-04-18T02:59:00.279Z,6.00
2023-04-18T03:01:27.171Z,6.00
2023-04-18T03:03:54.024Z,6.00
2023-04-18T03:06:20.936Z,6.20
2023-04-18T03:08:48.063Z,6.10
2023-04-18T03:11:14.765Z,6.10
2023-04-18T03:13:41.418Z,6.10
2023-04-18T03:16:08.657Z,6.20
2023-04-18T03:18:35.445Z,6.30
2023-04-18T03:21:02.159Z,6.30
2023-04-18T03:23:28.932Z,6.30
2023-04-18T03:25:55.952Z,6.40
2023-04-18T03:28:22.702Z,6.40
2023-04-18T03:30:50.649Z,6.40
2023-04-18T03:33:17.518Z,6.40
2023-04-18T03:35:44.249Z,6.50
2023-04-18T03:38:11.057Z,6.50
2023-04-18T03:40:37.958Z,6.60
2023-04-18T03:43:04.779Z,6.60
2023-04-18T03:45:31.856Z,6.60
2023-04-18T03:47:58.965Z,6.60
2023-04-18T03:50:25.986Z,6.70
2023-04-18T03:52:53.088Z,6.70
2023-04-18T03:55:19.959Z,6.70
2023-04-18T03:57:47.201Z,6.70
2023-04-18T04:00:14.646Z,6.70
2023-04-18T04:02:41.958Z,6.70
2023-04-18T04:05:09.178Z,6.80
2023-04-18T04:07:36.310Z,6.70
2023-04-18T04:10:03.381Z,6.80
2023-04-18T04:12:30.211Z,6.80
2023-04-18T04:14:56.953Z,6.80
2023-04-18T04:17:23.743Z,6.80
2023-04-18T04:19:51.396Z,6.80
2023-04-18T04:22:18.292Z,6.80
2023-04-18T04:24:46.699Z,6.70
2023-04-18T04:27:13.876Z,6.70
2023-04-18T04:29:41.394Z,6.80
2023-04-18T04:32:10.315Z,6.80
2023-04-18T04:34:37.153Z,6.80
2023-04-18T04:37:03.945Z,6.90
2023-04-18T04:39:30.849Z,6.90
2023-04-18T04:42:03.947Z,6.90
2023-04-18T04:44:31.306Z,6.90
2023-04-18T04:47:00.124Z,6.90
2023-04-18T04:49:27.157Z,6.90
2023-04-18T04:51:53.954Z,6.90
2023-04-18T04:54:20.861Z,6.90
2023-04-18T04:56:47.673Z,6.90
2023-04-18T04:59:14.534Z,6.90
2023-04-18T05:01:41.453Z,6.90
2023-04-18T05:04:08.649Z,7.10
2023-04-18T05:06:35.668Z,7.00
2023-04-18T05:09:02.375Z,7.00
2023-04-18T05:11:29.238Z,7.10
2023-04-18T05:13:56.022Z,7.10
2023-04-18T05:16:22.845Z,7.10
2023-04-18T05:18:49.727Z,7.10
2023-04-18T05:21:16.424Z,7.10
2023-04-18T05:23:43.148Z,7.10
2023-04-18T05:26:09.832Z,7.10
2023-04-18T05:28:36.648Z,7.20
2023-04-18T05:31:03.616Z,7.20
2023-04-18T05:33:31.608Z,7.30
2023-04-18T05:35:58.771Z,7.30
2023-04-18T05:38:25.564Z,7.30
2023-04-18T05:40:53.038Z,7.40
2023-04-18T05:43:19.994Z,7.40
2023-04-18T05:45:46.954Z,7.50
2023-04-18T05:48:14.290Z,7.50
2023-04-18T05:50:41.149Z,7.60
2023-04-18T05:53:09.290Z,7.60
2023-04-18T05:55:36.075Z,7.70
2023-04-18T05:58:02.888Z,7.70
2023-04-18T06:00:29.667Z,7.80
2023-04-18T06:02:56.811Z,7.80
2023-04-18T06:05:24.015Z,7.90
2023-04-18T06:07:51.124Z,8.00
2023-04-18T06:10:17.932Z,8.00
2023-04-18T06:12:45.033Z,8.10
2023-04-18T06:15:12.111Z,8.20
2023-04-18T06:17:39.128Z,8.20
2023-04-18T06:20:06.637Z,8.50
2023-04-18T06:22:36.739Z,8.70
2023-04-18T06:25:03.980Z,9.10
2023-04-18T06:27:31.835Z,9.70
2023-04-18T06:29:59.089Z,10.40
2023-04-18T06:32:26.085Z,10.90
2023-04-18T06:34:53.073Z,11.20
2023-04-18T06:37:20.053Z,11.20
2023-04-18T06:39:47.003Z,11.20
2023-04-18T06:42:13.851Z,10.90
2023-04-18T06:44:43.167Z,10.60
2023-04-18T06:47:10.818Z,10.40
2023-04-18T06:49:37.681Z,10.30
2023-04-18T06:52:04.447Z,10.20
2023-04-18T06:54:31.285Z,10.20
2023-04-18T06:56:58.471Z,10.30
2023-04-18T06:59:25.320Z,10.50
2023-04-18T07:01:52.071Z,10.70
2023-04-18T07:04:21.436Z,11.00
2023-04-18T07:06:48.420Z,11.60
2023-04-18T07:09:15.350Z,12.00
2023-04-18T07:11:42.016Z,12.40
2023-04-18T07:14:12.111Z,12.90
2023-04-18T07:16:39.248Z,13.60
2023-04-18T07:19:06.789Z,14.20
2023-04-18T07:21:36.730Z,14.80
2023-04-18T07:24:03.622Z,15.50
2023-04-18T07:26:30.435Z,15.50
2023-04-18T07:28:57.164Z,15.80
2023-04-18T07:31:26.004Z,14.90
2023-04-18T07:33:52.847Z,15.00
2023-04-18T07:36:27.021Z,15.00
2023-04-18T07:38:56.503Z,15.20
2023-04-18T07:41:26.097Z,15.30
2023-04-18T07:43:53.149Z,15.00
2023-04-18T07:46:21.649Z,15.00
2023-04-18T07:48:48.790Z,15.40
2023-04-18T07:53:50.638Z,16.60
2023-04-18T07:56:19.882Z,16.00
2023-04-18T07:58:48.142Z,15.30
2023-04-18T08:01:19.103Z,14.50
2023-04-18T08:03:50.536Z,13.90
2023-04-18T08:06:17.917Z,13.30
2023-04-18T08:08:44.855Z,12.90
2023-04-18T08:11:11.847Z,12.70
2023-04-18T08:13:46.403Z,12.20
2023-04-18T08:16:49.065Z,12.00
2023-04-18T08:19:21.373Z,11.80
2023-04-18T08:21:51.684Z,11.70
2023-04-18T08:24:24.026Z,11.60
2023-04-18T08:27:02.610Z,11.40
2023-04-18T08:29:29.603Z,11.30
2023-04-18T08:32:02.005Z,11.30
2023-04-18T08:34:29.766Z,11.10
2023-04-18T08:36:59.400Z,11.20
2023-04-18T08:39:26.395Z,11.40
2023-04-18T08:42:03.547Z,11.70
2023-04-18T08:44:30.698Z,11.60
2023-04-18T08:46:57.727Z,11.50
2023-04-18T08:49:25.122Z,11.50
2023-04-18T08:51:53.100Z,11.60
2023-04-18T08:54:22.496Z,11.80
2023-04-18T08:57:07.520Z,11.60
2023-04-18T08:59:35.682Z,11.50
2023-04-18T09:02:04.234Z,11.50
2023-04-18T09:04:38.278Z,11.60
2023-04-18T09:07:07.758Z,11.50
2023-04-18T09:09:45.456Z,11.30
2023-04-18T09:12:22.483Z,11.40
2023-04-18T09:14:54.244Z,11.40
2023-04-18T09:17:34.812Z,11.30
2023-04-18T09:20:06.309Z,11.30
2023-04-18T09:22:51.305Z,11.50
2023-04-18T09:25:46.913Z,11.70
2023-04-18T09:28:23.208Z,11.80
2023-04-18T09:30:54.403Z,12.00
2023-04-18T09:33:34.606Z,12.00
2023-04-18T09:36:21.397Z,12.10
2023-04-18T09:38:55.359Z,12.20
2023-04-18T09:41:23.543Z,12.20
2023-04-18T09:43:50.681Z,12.40
2023-04-18T09:46:17.843Z,12.60
2023-04-18T09:48:44.853Z,12.80
2023-04-18T09:51:16.284Z,12.80
2023-04-18T09:53:45.100Z,12.90
2023-04-18T09:56:28.014Z,13.10
2023-04-18T09:59:08.653Z,13.20
2023-04-18T10:01:35.877Z,13.30
2023-04-18T10:04:06.411Z,13.30
2023-04-18T10:06:34.969Z,13.50
2023-04-18T10:09:04.483Z,13.60
2023-04-18T10:11:31.881Z,13.60
2023-04-18T10:14:02.959Z,13.80
2023-04-18T10:16:30.093Z,14.00
2023-04-18T10:18:58.410Z,14.00
2023-04-18T10:21:28.633Z,13.90
2023-04-18T10:23:55.414Z,13.70
2023-04-18T10:26:50.286Z,13.60
2023-04-18T10:29:18.818Z,13.30
2023-04-18T10:31:47.992Z,13.10
2023-04-18T10:34:18.107Z,13.10
2023-04-18T10:37:04.690Z,13.20
2023-04-18T10:39:46.710Z,13.40
2023-04-18T10:42:13.494Z,13.30
2023-04-18T10:44:40.298Z,13.40
2023-04-18T10:47:07.086Z,13.50
2023-04-18T10:49:37.143Z,13.60
2023-04-18T10:52:07.234Z,13.70
2023-04-18T10:54:59.228Z,13.90
2023-04-18T10:57:41.181Z,13.90
2023-04-18T11:00:11.767Z,13.90
2023-04-18T11:02:39.650Z,14.00
2023-04-18T11:05:09.661Z,14.10
2023-04-18T11:07:40.877Z,14.20
2023-04-18T11:10:09.882Z,14.20
2023-04-18T11:12:38.474Z,14.10
2023-04-18T11:15:12.763Z,14.20
2023-04-18T11:17:40.386Z,14.30
2023-04-18T11:20:15.115Z,14.40
2023-04-18T11:22:53.158Z,14.50
2023-04-18T11:25:24.947Z,14.30
2023-04-18T11:27:51.849Z,14.30
2023-04-18T11:30:18.889Z,14.30
2023-04-18T11:32:45.778Z,14.40
2023-04-18T11:35:15.610Z,14.50
2023-04-18T11:37:45.379Z,14.60
2023-04-18T11:40:13.479Z,14.80
2023-04-18T11:42:41.396Z,14.70
2023-04-18T11:45:13.632Z,14.70
2023-04-18T11:47:42.758Z,14.50
2023-04-18T11:50:11.728Z,14.50
2023-04-18T11:52:43.978Z,14.40
2023-04-18T11:55:17.875Z,14.30
2023-04-18T11:57:52.910Z,14.30
2023-04-18T12:00:35.155Z,14.20
2023-04-18T12:03:08.857Z,14.20
2023-04-18T12:05:38.301Z,14.20
2023-04-18T12:08:38.258Z,14.20
2023-04-18T12:11:06.556Z,14.10
2023-04-18T12:13:33.373Z,14.10
2023-04-18T12:16:05.057Z,14.10
2023-04-18T12:18:32.521Z,14.20
2023-04-18T12:21:01.926Z,14.20
2023-04-18T12:23:41.939Z,14.20
2023-04-18T12:26:13.565Z,14.50
2023-04-18T12:28:44.508Z,14.70
2023-04-18T12:31:11.514Z,15.10
2023-04-18T12:33:38.254Z,15.10
2023-04-18T12:36:06.112Z,15.10
2023-04-18T12:38:33.012Z,15.00
2023-04-18T12:40:59.843Z,14.80
2023-04-18T12:43:27.018Z,14.80
2023-04-18T12:45:53.966Z,14.90
2023-04-18T12:48:20.811Z,15.00
2023-04-18T12:50:47.687Z,15.20
2023-04-18T12:53:14.446Z,15.50
2023-04-18T12:55:41.230Z,15.60
2023-04-18T12:58:08.021Z,15.50
2023-04-18T13:00:34.917Z,15.30
2023-04-18T13:03:02.268Z,15.10
2023-04-18T13:05:33.083Z,15.10
2023-04-18T13:08:12.750Z,15.00
2023-04-18T13:10:43.055Z,15.10
2023-04-18T13:13:09.836Z,15.30
2023-04-18T13:15:36.695Z,15.40
2023-04-18T13:18:06.325Z,15.40
2023-04-18T13:20:34.332Z,15.10
2023-04-18T13:23:03.223Z,15.00
2023-04-18T13:25:30.079Z,15.20
2023-04-18T13:27:58.610Z,15.40
2023-04-18T13:30:25.835Z,15.60
2023-04-18T13:32:52.741Z,15.50
2023-04-18T13:35:19.677Z,15.40
2023-04-18T13:37:46.506Z,15.20
2023-04-18T13:40:13.880Z,14.90
2023-04-18T13:42:40.746Z,14.80
2023-04-18T13:45:07.968Z,14.70
2023-04-18T13:47:35.225Z,14.50
2023-04-18T13:50:05.709Z,14.50
2023-04-18T13:52:32.543Z,14.70
2023-04-18T13:54:59.445Z,14.60
2023-04-18T13:57:32.007Z,14.60
2023-04-18T13:59:59.070Z,14.80
2023-04-18T14:02:26.174Z,15.10
2023-04-18T14:04:54.937Z,15.30
2023-04-18T14:07:21.884Z,15.40
2023-04-18T14:09:48.617Z,15.40
2023-04-18T14:12:15.533Z,15.60
2023-04-18T14:14:42.390Z,15.90
2023-04-18T14:17:09.254Z,16.10
2023-04-18T14:19:36.074Z,16.00
2023-04-18T14:22:03.068Z,15.90
2023-04-18T14:24:30.029Z,15.70
2023-04-18T14:26:56.885Z,15.70
2023-04-18T14:29:23.696Z,15.50
2023-04-18T14:31:50.865Z,15.30
2023-04-18T14:34:17.704Z,15.20
2023-04-18T14:36:44.467Z,15.30
2023-04-18T14:39:14.269Z,15.40
2023-04-18T14:41:41.546Z,15.60
2023-04-18T14:44:08.330Z,15.60
2023-04-18T14:46:35.287Z,15.70
2023-04-18T14:49:02.148Z,15.80
2023-04-18T14:51:28.871Z,15.90
2023-04-18T14:53:55.985Z,15.90
2023-04-18T14:56:24.315Z,15.80
2023-04-18T14:58:51.106Z,15.90
2023-04-18T15:01:17.880Z,16.00
2023-04-18T15:03:45.515Z,16.20
2023-04-18T15:06:12.681Z,16.80
2023-04-18T15:08:39.530Z,16.80
2023-04-18T15:11:09.540Z,16.70
2023-04-18T15:13:36.670Z,16.70
2023-04-18T15:16:03.969Z,16.50
2023-04-18T15:18:30.857Z,16.50
2023-04-18T15:20:59.969Z,16.50
2023-04-18T15:23:27.546Z,16.40
2023-04-18T15:25:54.596Z,16.30
2023-04-18T15:28:21.414Z,16.10
2023-04-18T15:30:48.453Z,16.00
2023-04-18T15:33:15.954Z,16.00
2023-04-18T15:35:42.754Z,16.00
2023-04-18T15:38:09.713Z,16.00
2023-04-18T15:40:36.643Z,15.90
2023-04-18T15:43:17.340Z,16.00
2023-04-18T15:45:44.568Z,16.10
2023-04-18T15:48:13.797Z,16.70
2023-04-18T15:50:42.522Z,16.40
2023-04-18T15:53:09.527Z,16.20
2023-04-18T15:55:37.790Z,16.30
2023-04-18T15:58:05.347Z,16.30
2023-04-18T16:00:32.301Z,16.10
2023-04-18T16:02:59.501Z,15.90
2023-04-18T16:05:26.482Z,15.90
2023-04-18T16:07:53.916Z,15.70
2023-04-18T16:10:20.823Z,15.80
2023-04-18T16:12:47.865Z,15.90
2023-04-18T16:15:14.607Z,15.90
2023-04-18T16:17:41.669Z,15.90
2023-04-18T16:20:09.209Z,15.80
2023-04-18T16:22:37.009Z,15.70
2023-04-18T16:25:04.996Z,15.60
2023-04-18T16:27:32.334Z,15.60
2023-04-18T16:29:59.285Z,15.70
2023-04-18T16:32:26.065Z,15.70
2023-04-18T16:34:53.194Z,15.80
2023-04-18T16:37:20.293Z,15.90
2023-04-18T16:39:47.469Z,16.00
2023-04-18T16:42:15.829Z,16.00
2023-04-18T16:44:45.893Z,16.00
2023-04-18T16:47:12.679Z,15.70
2023-04-18T16:49:39.648Z,15.50
2023-04-18T16:52:09.644Z,15.40
2023-04-18T16:54:44.540Z,15.30
2023-04-18T16:57:12.735Z,15.30
2023-04-18T16:59:42.717Z,15.40
2023-04-18T17:02:09.775Z,15.50
2023-04-18T17:04:37.238Z,15.50
2023-04-18T17:07:07.396Z,15.40
2023-04-18T17:09:42.632Z,15.30
2023-04-18T17:12:31.549Z,15.20
2023-04-18T17:15:03.921Z,15.20
2023-04-18T17:17:57.251Z,15.20
2023-04-18T17:20:52.915Z,15.20
2023-04-18T17:23:20.108Z,15.30
2023-04-18T17:25:49.333Z,15.30
2023-04-18T17:28:21.321Z,15.20
2023-04-18T17:30:53.451Z,15.00
2023-04-18T17:33:32.381Z,14.90
2023-04-18T17:46:19.822Z,14.60
2023-04-18T17:48:47.121Z,14.60
2023-04-18T17:51:16.267Z,14.50
2023-04-18T17:53:43.324Z,14.50
2023-04-18T17:56:10.240Z,14.50
2023-04-18T17:58:38.003Z,14.40
2023-04-18T18:01:14.428Z,14.30
2023-04-18T18:03:43.969Z,14.30
2023-04-18T18:06:15.323Z,14.40
2023-04-18T18:08:43.594Z,14.30
2023-04-18T18:11:10.788Z,14.20
2023-04-18T18:13:39.148Z,14.20
2023-04-18T18:16:07.102Z,14.00
2023-04-18T18:18:38.876Z,13.90
2023-04-18T18:21:06.034Z,13.80
2023-04-18T18:23:32.867Z,13.70
2023-04-18T18:26:00.770Z,13.60
2023-04-18T18:28:27.582Z,13.60
2023-04-18T18:30:54.473Z,13.50
2023-04-18T18:33:21.481Z,13.40
2023-04-18T18:35:48.295Z,13.30
2023-04-18T18:38:15.025Z,13.30
2023-04-18T18:40:41.791Z,13.20
2023-04-18T18:43:08.543Z,13.10
2023-04-18T18:45:35.571Z,13.00
2023-04-18T18:48:03.981Z,12.80
2023-04-18T18:50:30.989Z,12.80
2023-04-18T18:52:57.741Z,12.70
2023-04-18T18:55:24.681Z,12.60
2023-04-18T18:57:51.627Z,12.50
2023-04-18T19:00:18.379Z,12.40
2023-04-18T19:02:45.233Z,12.40
2023-04-18T19:05:15.033Z,12.20
2023-04-18T19:07:44.481Z,12.10
2023-04-18T19:10:12.754Z,12.10
2023-04-18T19:12:39.529Z,12.00
2023-04-18T19:15:07.023Z,11.90
2023-04-18T19:17:36.684Z,11.90
2023-04-18T19:20:03.982Z,11.80
2023-04-18T19:22:32.374Z,11.70
2023-04-18T19:25:00.716Z,11.60
2023-04-18T19:27:27.543Z,11.60
2023-04-18T19:29:54.449Z,11.50
2023-04-18T19:32:23.952Z,11.40
2023-04-18T19:34:51.527Z,11.40
2023-04-18T19:37:18.241Z,11.40
2023-04-18T19:39:44.982Z,11.20
2023-04-18T19:42:11.784Z,11.30
2023-04-18T19:44:38.618Z,11.20
2023-04-18T19:47:05.373Z,11.20
2023-04-18T19:49:32.266Z,11.10
2023-04-18T19:51:58.991Z,11.10
2023-04-18T19:54:25.822Z,11.00
2023-04-18T19:56:52.590Z,11.00
2023-04-18T19:59:19.350Z,10.90
2023-04-18T20:01:47.578Z,10.90
2023-04-18T20:04:14.484Z,10.90
2023-04-18T20:06:41.475Z,10.80
2023-04-18T20:09:15.423Z,10.80
2023-04-18T20:11:43.347Z,10.70
2023-04-18T20:14:10.577Z,10.70
2023-04-18T20:16:39.213Z,10.70
2023-04-18T20:19:06.035Z,10.60
2023-04-18T20:21:35.115Z,10.50
2023-04-18T20:24:01.885Z,10.50
2023-04-18T20:26:29.186Z,10.50
2023-04-18T20:28:56.019Z,10.50
2023-04-18T20:31:22.835Z,10.40
2023-04-18T20:33:49.729Z,10.40
2023-04-18T20:36:21.230Z,10.40
2023-04-18T20:38:50.446Z,10.30
2023-04-18T20:41:18.986Z,10.30
2023-04-18T20:43:48.605Z,10.20
2023-04-18T20:46:16.214Z,10.20
2023-04-18T20:48:48.147Z,10.10
2023-04-18T20:51:15.970Z,10.10
2023-04-18T20:53:46.467Z,10.10
2023-04-18T20:56:13.348Z,10.00
2023-04-18T20:58:47.630Z,10.00
2023-04-18T21:01:14.716Z,9.90
2023-04-18T21:03:42.286Z,9.90
2023-04-18T21:06:11.794Z,9.90
2023-04-18T21:08:39.567Z,9.90
2023-04-18T21:11:09.142Z,9.80
2023-04-18T21:13:37.230Z,9.80
2023-04-18T21:16:07.862Z,9.70
2023-04-18T21:18:37.417Z,9.70
2023-04-18T21:21:05.467Z,9.70
2023-04-18T21:23:32.651Z,9.70
2023-04-18T21:25:59.367Z,9.60
2023-04-18T21:28:27.234Z,9.60
2023-04-18T21:30:53.956Z,9.60
2023-04-18T21:33:20.871Z,9.50
2023-04-18T21:35:47.642Z,9.50
2023-04-18T21:38:14.607Z,9.50
2023-04-18T21:40:41.381Z,9.50
2023-04-18T21:43:08.102Z,9.40
2023-04-18T21:45:34.960Z,9.40
2023-04-18T21:48:01.954Z,9.40
2023-04-18T21:50:28.800Z,9.40
2023-04-18T21:52:56.791Z,9.50
2023-04-18T21:55:23.526Z,9.30
2023-04-18T21:57:50.483Z,9.30
2023-04-18T22:00:17.665Z,9.20
2023-04-18T22:02:44.622Z,9.20
2023-04-18T22:05:13.948Z,9.20
2023-04-18T22:07:54.413Z,9.20
2023-04-18T22:10:25.117Z,9.10
2023-04-18T22:12:54.115Z,9.10
2023-04-18T22:15:21.518Z,9.00
2023-04-18T22:17:50.431Z,9.00
2023-04-18T22:20:17.637Z,9.00
2023-04-18T22:22:44.426Z,8.90
2023-04-18T22:25:12.297Z,8.90
2023-04-18T22:27:39.405Z,9.00
2023-04-18T22:30:07.240Z,8.90
2023-04-18T22:32:33.998Z,8.80
2023-04-18T22:35:01.717Z,8.80
2023-04-18T22:37:29.712Z,8.80
2023-04-18T22:39:56.599Z,8.70
2023-04-18T22:42:23.503Z,8.70
2023-04-18T22:44:50.460Z,8.70
2023-04-18T22:47:17.239Z,8.70
2023-04-18T22:49:44.472Z,8.70
2023-04-18T22:52:12.357Z,8.70
2023-04-18T22:54:39.939Z,8.70
2023-04-18T22:57:07.888Z,8.70
2023-04-18T22:59:34.773Z,8.60
2023-04-18T23:02:01.825Z,8.70
2023-04-18T23:04:32.095Z,8.60
2023-04-18T23:06:58.936Z,8.60
2023-04-18T23:09:27.073Z,8.60
2023-04-18T23:11:54.164Z,8.50
2023-04-18T23:14:21.503Z,8.50
2023-04-18T23:16:48.761Z,8.50
2023-04-18T23:19:16.239Z,8.50
2023-04-18T23:21:43.080Z,8.50
2023-04-18T23:24:11.121Z,8.40
2023-04-18T23:26:38.559Z,8.40
2023-04-18T23:29:05.392Z,8.40
2023-04-18T23:31:33.156Z,8.40
2023-04-18T23:34:00.995Z,8.40
2023-04-18T23:36:27.749Z,8.30
2023-04-18T23:38:54.704Z,8.30
2023-04-18T23:41:21.397Z,8.30
2023-04-18T23:43:49.276Z,8.30
2023-04-18T23:46:16.490Z,8.30
2023-04-18T23:48:43.229Z,8.30
2023-04-18T23:51:11.262Z,8.40
2023-04-18T23:53:38.064Z,8.40
2023-04-18T23:56:05.111Z,8.40
2023-04-18T23:58:31.889Z,8.50
